Plymouth, MA

2:22 AM EST on December 03, 2016 (GMT -0500)
Bridge Gate | | Change Station

Elev 177 ft 41.88 °N, 70.60 °W | Updated 3 minutes ago

Mostly Cloudy
Mostly Cloudy
39.7 °F
Feels Like 38 °F
N
3.1
Wind Variable Wind from West
Gusts 8.1 mph

Today
High -- | Low -- °F
--% Chance of Precip.
Yesterday
High -- | Low -- °F
Precip. -- in
Pressure 29.76 in
Visibility 10.0 miles
Clouds Mostly Cloudy 5000 ft
Windchill 38 °F
Dew Point 31 °F
Humidity 71%
Rainfall Not available.
Snow Depth Not available.
6:53 AM 4:11 PM
Waxing Crescent, 13% visible
METAR KPYM 030652Z AUTO 28009KT 10SM BKN050 04/M02 A2976 RMK AO2 SLP078 T00441017
Pressure 29.76 in
Visibility 10.0 miles
Clouds Mostly Cloudy 5000 ft
Windchill 38 °F
Dew Point 31 °F
Humidity 71%
Rainfall Not available.
Snow Depth Not available.
6:53 AM 4:11 PM
Waxing Crescent, 13% visible
METAR KPYM 030652Z AUTO 28009KT 10SM BKN050 04/M02 A2976 RMK AO2 SLP078 T00441017

10-Day Weather Forecast

Almanac

Astronomy

Dec. 03, 2016 Rise Set
Actual Time
Civil Twilight
Nautical Twilight
Astronomical Twilight
Moon
Length of Visible Light
Length of Day
Tomorrow will be .
, % of the Moon is Illuminated

Today's Extremes

State Highs State Lows

Community

WunderPhotos

Upload Photos

1,955,432 photos uploaded!

WunderBlog® & News

Nearby

Air Quality

  Air Quality AQ Index Pollutant
Not available.

Snow Depth

Station Depth Elevation

Earthquake Activity

City Distance Mag. Time & Date
Minimum magnitude displayed is 2.5.

Coastal Water Temperatures

Place Temperature

Stations

Nearby Weather Stations

Station Location Temp. Windchill Dew Point Humidity Wind Precip. Elev Updated Type
                   

Watches & Warnings

There are currently no watches in effect.